Time;durP1;ratioP1;P1;durP2;ratioP2;P2;SDS_P1;SDS_P2;PMS_P1;PMS_P2;Temp;Humidity;BMP_temperature;BMP_pressure;BME280_temperature;BME280_humidity;BME280_pressure;Samples;Min_cycle;Max_cycle;Signal;HPM_P1;HPM_P2
2021/08/28 00:01:28;;;;;;;23.63;6.80;;;;;;;18.75;55.00;99696.28;4903266;29;20056;-70
2021/08/28 00:03:54;;;;;;;19.20;6.43;;;;;;;18.70;55.14;99683.44;4888592;29;20134;-71
2021/08/28 00:06:20;;;;;;;14.93;6.03;;;;;;;18.72;55.05;99697.75;4897199;29;20095;-72
2021/08/28 00:08:46;;;;;;;14.90;6.40;;;;;;;18.64;55.04;99695.84;4889140;29;20056;-71
2021/08/28 00:11:12;;;;;;;18.40;6.13;;;;;;;18.70;55.35;99702.81;4904274;29;20052;-72
2021/08/28 00:13:39;;;;;;;17.67;6.30;;;;;;;18.70;55.05;99695.34;4891832;29;20574;-70
2021/08/28 00:16:05;;;;;;;21.90;6.93;;;;;;;18.71;55.05;99696.97;4909025;29;20036;-71
2021/08/28 00:18:33;;;;;;;19.23;6.10;;;;;;;18.68;54.87;99699.56;4904930;29;20632;-71
2021/08/28 00:20:58;;;;;;;;;;;;;;;18.62;55.29;99698.16;4877464;29;20103;-71
2021/08/28 00:23:24;;;;;;;15.07;4.95;;;;;;;18.61;54.87;99702.84;4904928;29;19931;-71
2021/08/28 00:25:50;;;;;;;15.63;5.25;;;;;;;18.63;55.09;99697.00;4895598;29;20064;-72
2021/08/28 00:28:16;;;;;;;18.17;5.80;;;;;;;18.60;55.12;99703.19;4908237;29;20309;-71
2021/08/28 00:30:57;;;;;;;13.48;5.82;;;;;;;18.51;55.30;99692.97;4905486;29;20429;-72
2021/08/28 00:33:23;;;;;;;15.68;5.00;;;;;;;18.48;55.14;99693.63;4904748;29;20234;-71
2021/08/28 00:35:51;;;;;;;14.65;5.20;;;;;;;18.55;54.83;99705.00;4894014;29;20048;-71
2021/08/28 00:38:17;;;;;;;13.52;4.90;;;;;;;18.43;55.27;99697.38;4891195;29;20059;-70
2021/08/28 00:40:44;;;;;;;12.15;5.07;;;;;;;18.43;55.03;99699.34;4903237;29;20055;-72
2021/08/28 00:43:10;;;;;;;13.10;4.90;;;;;;;18.43;55.30;99710.44;4893021;29;20609;-71
2021/08/28 00:45:36;;;;;;;14.23;4.97;;;;;;;18.44;55.23;99712.06;4906903;29;21877;-72
2021/08/28 00:48:04;;;;;;;14.75;5.18;;;;;;;18.38;55.43;99708.66;4907384;29;20079;-72
2021/08/28 00:50:33;;;;;;;18.25;4.82;;;;;;;18.39;55.06;99703.91;4903736;29;20048;-72
2021/08/28 00:53:02;;;;;;;15.38;4.70;;;;;;;18.46;55.00;99706.16;4891323;29;20405;-73
2021/08/28 00:55:29;;;;;;;16.52;4.72;;;;;;;18.43;55.18;99711.22;4890968;29;20053;-73
2021/08/28 00:57:56;;;;;;;16.10;4.45;;;;;;;18.39;54.80;99710.25;4894864;29;20143;-73
2021/08/28 01:00:23;;;;;;;16.67;4.45;;;;;;;18.31;55.02;99705.56;4903765;29;20108;-72
2021/08/28 01:02:51;;;;;;;16.52;4.80;;;;;;;18.38;55.23;99708.66;4890524;29;20407;-73
2021/08/28 01:05:22;;;;;;;17.73;4.43;;;;;;;18.45;55.00;99721.97;4906309;29;20150;-71
2021/08/28 01:08:10;;;;;;;14.32;4.60;;;;;;;18.42;55.11;99720.66;4904054;29;20139;-73
2021/08/28 01:11:21;;;;;;;10.30;4.25;;;;;;;18.45;55.08;99721.16;4887399;29;20426;-72
2021/08/28 01:14:04;;;;;;;15.65;5.20;;;;;;;18.37;54.94;99720.03;4886280;29;20053;-72
2021/08/28 01:16:44;;;;;;;12.18;4.10;;;;;;;18.30;55.16;99717.75;4901882;29;20048;-73
2021/08/28 01:19:17;;;;;;;10.40;3.90;;;;;;;18.26;55.40;99720.41;4906833;29;20056;-72
2021/08/28 01:21:46;;;;;;;12.52;4.63;;;;;;;18.29;55.01;99718.91;4887344;29;20143;-71
2021/08/28 01:24:44;;;;;;;10.98;4.07;;;;;;;18.29;55.44;99718.91;4856734;29;20071;-72
2021/08/28 01:27:35;;;;;;;9.68;3.67;;;;;;;18.31;54.83;99715.81;4903285;29;20056;-71
2021/08/28 01:30:05;;;;;;;15.77;4.22;;;;;;;18.15;55.36;99713.56;4905358;29;20391;-71
2021/08/28 01:32:37;;;;;;;11.75;3.65;;;;;;;18.17;55.41;99711.28;4903061;29;20067;-72
2021/08/28 01:35:05;;;;;;;10.70;3.63;;;;;;;18.17;55.32;99724.28;4901928;29;20060;-70
2021/08/28 01:37:33;;;;;;;12.60;3.72;;;;;;;18.17;55.24;99716.81;4902730;29;20509;-71
2021/08/28 01:40:21;;;;;;;13.88;3.65;;;;;;;18.19;55.41;99714.53;4900106;29;20050;-72
2021/08/28 01:43:00;;;;;;;13.13;3.30;;;;;;;18.10;55.22;99710.97;4901473;29;20117;-72
2021/08/28 01:45:28;;;;;;;12.15;3.65;;;;;;;18.17;54.99;99716.81;4906562;29;20067;-72
2021/08/28 01:48:02;;;;;;;16.58;4.00;;;;;;;18.15;55.00;99713.56;4902982;29;20060;-71
2021/08/28 01:50:29;;;;;;;12.85;3.45;;;;;;;18.18;54.81;99717.63;4903220;29;20116;-72
2021/08/28 01:53:21;;;;;;;11.13;3.42;;;;;;;18.18;55.21;99710.16;4887101;29;20147;-71
2021/08/28 01:55:47;;;;;;;11.30;3.47;;;;;;;18.11;55.02;99721.72;4888693;29;20143;-71
2021/08/28 01:58:14;;;;;;;9.45;3.50;;;;;;;18.11;54.95;99712.63;4900046;29;20072;-72
2021/08/28 02:01:04;;;;;;;11.35;3.25;;;;;;;18.07;55.13;99714.38;4904350;29;20060;-71
2021/08/28 02:03:48;;;;;;;13.13;3.33;;;;;;;18.07;55.09;99719.91;4888573;29;20051;-71
2021/08/28 02:06:21;;;;;;;10.25;3.55;;;;;;;18.14;54.96;99717.50;4902511;29;20572;-72
2021/08/28 02:08:50;;;;;;;13.40;3.70;;;;;;;18.12;55.05;99720.56;4904891;29;20083;-72
2021/08/28 02:11:24;;;;;;;11.55;3.53;;;;;;;18.00;55.29;99709.31;4904377;29;20056;-71
2021/08/28 02:13:55;;;;;;;11.40;4.00;;;;;;;18.00;55.00;99717.63;4889404;29;20078;-72
2021/08/28 02:16:26;;;;;;;9.02;3.50;;;;;;;18.03;55.20;99721.72;4904266;29;20074;-72
2021/08/28 02:18:59;;;;;;;15.90;4.15;;;;;;;17.98;55.28;99714.38;4901637;29;20131;-73
2021/08/28 02:21:52;;;;;;;14.57;3.70;;;;;;;18.00;55.06;99721.22;4904806;29;20083;-73
2021/08/28 02:24:27;;;;;;;9.65;3.50;;;;;;;17.88;55.39;99712.75;4902745;29;20708;-72
2021/08/28 02:26:59;;;;;;;14.15;3.70;;;;;;;17.92;55.16;99729.53;4902924;29;20104;-72
2021/08/28 02:29:32;;;;;;;10.68;3.13;;;;;;;17.89;55.10;99727.41;4902611;29;20052;-71
2021/08/28 02:32:00;;;;;;;12.90;3.47;;;;;;;17.81;55.40;99718.78;4902387;29;20071;-71
2021/08/28 02:34:33;;;;;;;9.50;3.30;;;;;;;17.84;55.50;99729.19;4901998;29;20143;-71
2021/08/28 02:37:02;;;;;;;13.27;3.47;;;;;;;17.79;55.06;99721.06;4905631;29;20057;-70
2021/08/28 02:39:29;;;;;;;10.13;3.35;;;;;;;17.79;55.43;99726.59;4902791;29;20055;-71
2021/08/28 02:41:57;;;;;;;17.63;3.67;;;;;;;17.83;55.48;99724.00;4889086;29;20510;-72
2021/08/28 02:44:25;;;;;;;11.75;3.88;;;;;;;17.76;55.65;99731.94;4903266;29;20056;-72
2021/08/28 02:46:53;;;;;;;11.88;3.22;;;;;;;17.79;55.43;99732.13;4891915;29;20077;-71
2021/08/28 02:49:24;;;;;;;11.48;3.40;;;;;;;17.77;55.15;99730.81;4906797;29;20486;-71
2021/08/28 02:51:53;;;;;;;19.60;3.53;;;;;;;17.75;55.43;99739.44;4892992;29;20058;-72
2021/08/28 02:54:27;;;;;;;9.32;3.17;;;;;;;17.74;55.15;99740.59;4905722;29;20070;-72
2021/08/28 02:56:56;;;;;;;11.27;3.40;;;;;;;17.68;55.20;99731.63;4905502;29;20052;-72
2021/08/28 02:59:24;;;;;;;10.65;3.50;;;;;;;17.66;55.46;99733.91;4890387;29;20060;-72
2021/08/28 03:01:51;;;;;;;10.77;3.22;;;;;;;17.60;55.11;99732.44;4906607;29;20052;-73
2021/08/28 03:04:22;;;;;;;11.60;2.88;;;;;;;17.62;55.70;99734.88;4908106;29;20059;-71
2021/08/28 03:06:51;;;;;;;12.60;3.45;;;;;;;17.61;55.43;99738.78;4880981;29;20053;-72
2021/08/28 03:09:18;;;;;;;12.48;3.28;;;;;;;17.51;55.57;99737.94;4905877;29;20063;-72
2021/08/28 03:11:45;;;;;;;11.37;3.00;;;;;;;17.52;55.45;99736.81;4905095;29;20050;-72
2021/08/28 03:14:11;;;;;;;18.17;3.13;;;;;;;17.53;55.67;99749.50;4893344;29;20107;-72
2021/08/28 03:16:43;;;;;;;11.75;3.55;;;;;;;17.53;55.60;99749.50;4892684;29;20147;-72
2021/08/28 03:19:27;;;;;;;13.35;3.50;;;;;;;17.45;55.61;99733.72;4900416;29;20056;-72
2021/08/28 03:22:00;;;;;;;14.00;3.08;;;;;;;17.43;55.87;99720.22;4902223;29;20426;-72
2021/08/28 03:24:31;;;;;;;12.18;3.20;;;;;;;17.52;55.70;99739.56;4893162;29;20077;-72
2021/08/28 03:27:09;;;;;;;12.10;2.90;;;;;;;17.54;55.81;99742.03;4904645;29;20066;-73
2021/08/28 03:29:36;;;;;;;9.90;3.22;;;;;;;17.63;55.26;99742.03;4908821;29;20167;-73
2021/08/28 03:32:05;;;;;;;13.02;3.10;;;;;;;17.57;55.76;99749.66;4905874;29;20048;-72
2021/08/28 03:34:33;;;;;;;12.70;3.10;;;;;;;17.58;55.68;99741.06;4908486;29;20461;-72
2021/08/28 03:37:01;;;;;;;11.52;3.17;;;;;;;17.61;55.03;99753.41;4905480;29;20112;-70
2021/08/28 03:39:29;;;;;;;11.77;3.50;;;;;;;17.61;55.11;99753.41;4906617;29;20143;-71
2021/08/28 03:41:57;;;;;;;12.05;3.10;;;;;;;17.46;55.40;99727.06;4907322;29;20052;-72
2021/08/28 03:44:23;;;;;;;8.38;2.92;;;;;;;17.54;55.07;99740.06;4903188;29;20072;-72
2021/08/28 03:46:50;;;;;;;11.37;3.50;;;;;;;17.65;54.85;99753.56;4888579;29;20536;-72
2021/08/28 03:49:17;;;;;;;15.07;3.13;;;;;;;17.48;55.07;99744.13;4889931;29;20092;-71
2021/08/28 03:51:43;;;;;;;13.63;3.08;;;;;;;17.54;54.80;99744.78;4906138;29;20429;-72
2021/08/28 03:54:11;;;;;;;13.37;3.10;;;;;;;17.61;54.82;99752.59;4908804;29;20257;-72
2021/08/28 03:56:40;;;;;;;9.13;3.13;;;;;;;17.59;54.61;99755.69;4904024;29;20048;-72
2021/08/28 03:59:07;;;;;;;13.32;2.95;;;;;;;17.62;54.89;99754.22;4903786;29;20056;-72
2021/08/28 04:01:34;;;;;;;12.82;3.30;;;;;;;17.61;54.67;99745.09;4904097;29;20107;-71
2021/08/28 04:04:05;;;;;;;12.18;3.33;;;;;;;17.63;54.50;99744.78;4905217;29;20048;-72
2021/08/28 04:06:33;;;;;;;21.35;3.90;;;;;;;17.73;54.65;99752.78;4903239;29;20103;-72
2021/08/28 04:08:59;;;;;;;21.75;3.45;;;;;;;17.68;54.81;99755.69;4906760;29;20576;-72
2021/08/28 04:11:28;;;;;;;28.00;3.67;;;;;;;17.79;54.28;99767.22;4904926;29;20064;-72
2021/08/28 04:13:54;;;;;;;12.30;3.22;;;;;;;17.77;54.01;99772.28;4889518;29;20086;-72
2021/08/28 04:16:21;;;;;;;13.63;3.13;;;;;;;17.62;54.27;99752.25;4908997;29;20056;-72
2021/08/28 04:18:54;;;;;;;13.65;2.85;;;;;;;17.64;54.38;99763.00;4890342;29;20108;-72
2021/08/28 04:21:44;;;;;;;11.38;2.90;;;;;;;17.72;54.05;99763.00;4905209;29;20128;-72
2021/08/28 04:24:24;;;;;;;13.27;3.08;;;;;;;17.76;54.06;99768.72;4884799;29;20052;-72
2021/08/28 04:27:13;;;;;;;13.77;2.92;;;;;;;17.68;54.54;99764.81;4908609;29;20060;-73
2021/08/28 04:29:39;;;;;;;11.82;3.22;;;;;;;17.72;54.08;99762.22;4892836;29;20154;-73
2021/08/28 04:32:06;;;;;;;13.32;3.38;;;;;;;17.68;54.44;99762.03;4905758;29;20548;-72
2021/08/28 04:34:32;;;;;;;8.35;2.90;;;;;;;17.75;54.27;99756.03;4909684;29;20056;-71
2021/08/28 04:36:58;;;;;;;13.05;3.08;;;;;;;17.66;54.17;99747.72;4903163;29;20528;-71
2021/08/28 04:39:24;;;;;;;11.55;3.03;;;;;;;17.83;53.75;99762.72;4904846;29;20072;-72
2021/08/28 04:41:52;;;;;;;11.05;3.03;;;;;;;17.87;53.56;99763.66;4904964;29;20063;-72
2021/08/28 04:44:20;;;;;;;14.07;3.05;;;;;;;17.89;53.27;99769.69;4906549;29;20051;-72
2021/08/28 04:46:47;;;;;;;9.30;2.97;;;;;;;17.88;53.57;99759.75;4889998;29;20065;-72
2021/08/28 04:49:15;;;;;;;15.15;3.22;;;;;;;17.85;53.62;99763.19;4909150;29;20095;-72
2021/08/28 04:52:20;;;;;;;14.20;3.05;;;;;;;17.82;53.60;99752.78;4870317;29;20424;-72
2021/08/28 04:54:46;;;;;;;8.82;2.90;;;;;;;17.81;53.50;99760.25;4868097;29;20057;-72
2021/08/28 04:57:12;;;;;;;11.65;3.00;;;;;;;17.75;53.49;99755.19;4866357;29;20055;-73
2021/08/28 04:59:42;;;;;;;19.48;4.18;;;;;;;17.71;53.51;99747.56;4880271;29;20092;-73
2021/08/28 05:02:31;;;;;;;26.38;3.50;;;;;;;17.73;53.74;99750.03;4872685;29;20051;-73
2021/08/28 05:05:03;;;;;;;22.95;3.97;;;;;;;17.79;53.47;99756.19;4889767;29;20056;-73
2021/08/28 05:07:30;;;;;;;22.67;3.28;;;;;;;17.87;53.01;99755.38;4901429;29;20537;-73
2021/08/28 05:10:02;;;;;;;22.23;4.72;;;;;;;17.83;53.34;99757.19;4889905;29;20055;-73
2021/08/28 05:12:30;;;;;;;13.32;2.78;;;;;;;17.77;53.25;99753.75;4893113;29;20056;-73
2021/08/28 05:15:10;;;;;;;9.43;2.80;;;;;;;17.66;53.57;99736.69;4904379;29;20064;-71
2021/08/28 05:17:45;;;;;;;9.98;3.00;;;;;;;17.79;53.82;99751.47;4903798;29;20142;-72
2021/08/28 05:20:12;;;;;;;13.10;3.10;;;;;;;17.74;53.67;99751.66;4893732;29;20067;-72
2021/08/28 05:23:01;;;;;;;13.23;3.47;;;;;;;17.76;53.90;99745.78;4887570;29;20509;-72
2021/08/28 05:25:47;;;;;;;11.45;2.95;;;;;;;17.79;53.78;99757.00;4888524;29;20048;-72
2021/08/28 05:28:13;;;;;;;15.40;2.72;;;;;;;17.84;53.51;99748.53;4904806;29;20052;-72
2021/08/28 05:30:42;;;;;;;12.38;2.60;;;;;;;17.91;53.21;99759.09;4903648;29;20070;-73
2021/08/28 05:33:10;;;;;;;25.60;3.25;;;;;;;17.91;53.18;99767.41;4887903;29;20762;-72
2021/08/28 05:35:36;;;;;;;13.77;2.85;;;;;;;17.88;53.26;99770.81;4871357;29;20095;-75
2021/08/28 05:38:19;;;;;;;9.25;2.53;;;;;;;17.86;53.13;99760.09;4878574;29;20048;-72
2021/08/28 05:40:45;;;;;;;11.40;2.80;;;;;;;17.90;53.11;99754.72;4900739;29;20549;-72
2021/08/28 05:43:12;;;;;;;13.80;2.80;;;;;;;17.86;53.17;99753.75;4903734;29;20056;-72
2021/08/28 05:45:59;;;;;;;14.38;2.88;;;;;;;17.83;53.38;99751.66;4905087;29;20470;-70
2021/08/28 05:48:27;;;;;;;10.45;2.78;;;;;;;17.91;53.07;99752.78;4904053;29;20069;-71
2021/08/28 05:50:54;;;;;;;11.07;2.80;;;;;;;17.89;52.91;99755.06;4904363;29;20578;-72
2021/08/28 05:53:24;;;;;;;12.27;3.65;;;;;;;17.86;52.72;99740.72;4902190;29;20526;-72
2021/08/28 05:55:50;;;;;;;13.25;2.95;;;;;;;17.96;52.67;99750.66;4876937;29;20428;-72
2021/08/28 05:58:16;;;;;;;10.95;2.95;;;;;;;18.01;52.58;99752.44;4903138;29;20044;-72
2021/08/28 06:00:42;;;;;;;11.73;4.13;;;;;;;18.00;52.86;99742.50;4888819;29;20963;-72
2021/08/28 06:03:10;;;;;;;14.23;3.15;;;;;;;18.06;52.57;99748.72;4887203;29;20060;-71
2021/08/28 06:05:36;;;;;;;12.32;2.75;;;;;;;18.05;52.63;99739.63;4902833;29;20092;-70
2021/08/28 06:08:23;;;;;;;12.52;2.70;;;;;;;18.04;52.93;99745.47;4892954;29;20449;-72
2021/08/28 06:11:01;;;;;;;9.02;2.63;;;;;;;18.11;52.68;99741.06;4905131;29;20421;-72
2021/08/28 06:13:45;;;;;;;16.33;2.72;;;;;;;18.18;52.70;99745.28;4904285;29;20580;-71
2021/08/28 06:16:20;;;;;;;13.27;2.83;;;;;;;18.23;52.63;99745.13;4892718;29;20690;-71
2021/08/28 06:18:48;;;;;;;9.65;2.85;;;;;;;18.22;52.39;99741.53;4900712;29;20108;-71
2021/08/28 06:21:14;;;;;;;12.73;2.75;;;;;;;18.25;52.24;99745.63;4903410;29;20056;-71
2021/08/28 06:23:40;;;;;;;12.07;3.42;;;;;;;18.25;52.74;99738.13;4885344;29;20053;-72
2021/08/28 06:26:38;;;;;;;8.23;2.78;;;;;;;18.36;52.37;99740.53;4879632;29;20461;-70
2021/08/28 06:29:05;;;;;;;15.30;3.53;;;;;;;18.41;52.03;99732.06;4891808;29;20087;-72
2021/08/28 06:31:33;;;;;;;12.70;3.20;;;;;;;18.50;52.05;99740.38;4906941;29;20067;-72
2021/08/28 06:34:00;;;;;;;15.40;3.38;;;;;;;18.60;51.84;99730.88;4891398;29;20048;-71
2021/08/28 06:36:30;;;;;;;17.15;4.55;;;;;;;18.68;51.99;99730.03;4906651;29;20063;-72
2021/08/28 06:39:02;;;;;;;20.48;6.85;;;;;;;18.71;52.24;99727.41;4906728;29;20056;-72
2021/08/28 06:41:49;;;;;;;15.68;5.15;;;;;;;18.79;51.49;99724.94;4887920;29;20509;-72
2021/08/28 06:44:48;;;;;;;9.18;3.00;;;;;;;18.76;51.40;99709.81;4885127;29;20051;-72
2021/08/28 06:47:43;;;;;;;14.20;4.82;;;;;;;18.92;50.93;99723.09;4894692;29;20048;-72
2021/08/28 06:50:29;;;;;;;13.02;3.40;;;;;;;18.98;51.25;99722.59;4903156;29;20067;-73
2021/08/28 06:53:13;;;;;;;13.77;2.97;;;;;;;18.97;50.59;99718.19;4907383;29;20138;-73
2021/08/28 06:55:45;;;;;;;12.30;3.30;;;;;;;18.97;51.09;99720.13;4907705;29;20137;-75
2021/08/28 06:58:49;;;;;;;16.35;3.80;;;;;;;19.13;52.18;99726.75;4856443;29;20116;-77
2021/08/28 07:01:36;;;;;;;15.80;4.32;;;;;;;19.20;52.38;99714.31;4863847;29;20048;-75
2021/08/28 07:04:21;;;;;;;15.50;4.18;;;;;;;19.20;52.17;99704.06;4896831;29;20601;-76
2021/08/28 07:07:19;;;;;;;16.52;4.40;;;;;;;19.36;52.81;99720.94;4901107;29;20052;-75
2021/08/28 07:09:50;;;;;;;11.13;3.63;;;;;;;19.38;51.70;99712.25;4892305;29;20051;-75
2021/08/28 07:12:16;;;;;;;13.73;2.67;;;;;;;19.47;51.27;99721.34;4907227;29;20052;-75
2021/08/28 07:14:44;;;;;;;17.70;3.50;;;;;;;19.48;51.32;99713.81;4903982;29;20074;-74
2021/08/28 07:17:24;;;;;;;12.55;2.92;;;;;;;19.59;51.45;99712.28;4901692;29;20063;-75
2021/08/28 07:19:50;;;;;;;11.43;2.95;;;;;;;19.73;51.13;99713.97;4888850;29;20100;-76
2021/08/28 07:22:16;;;;;;;11.88;3.13;;;;;;;19.79;51.59;99709.81;4905401;29;20056;-74
2021/08/28 07:24:43;;;;;;;9.90;2.90;;;;;;;19.75;50.35;99709.72;4905499;29;20051;-75
2021/08/28 07:27:11;;;;;;;9.65;2.83;;;;;;;19.61;49.65;99687.00;4907052;29;20143;-75
2021/08/28 07:29:58;;;;;;;11.80;2.95;;;;;;;19.65;49.70;99691.50;4906886;29;20056;-74
2021/08/28 07:32:24;;;;;;;15.48;2.85;;;;;;;19.49;49.25;99660.81;4881777;29;20116;-74
2021/08/28 07:34:54;;;;;;;11.68;2.85;;;;;;;19.60;48.49;99685.38;4906061;29;20394;-73
2021/08/28 07:37:21;;;;;;;13.43;3.10;;;;;;;19.80;48.48;99720.59;4892683;29;20063;-72
2021/08/28 07:39:48;;;;;;;13.48;3.28;;;;;;;19.67;47.93;99693.94;4907347;29;20051;-74
2021/08/28 07:42:15;;;;;;;11.65;2.90;;;;;;;19.82;48.09;99704.41;4891736;29;20148;-72
2021/08/28 07:44:45;;;;;;;13.30;2.90;;;;;;;19.92;48.38;99719.06;4910760;29;20060;-73
2021/08/28 07:47:21;;;;;;;8.65;3.13;;;;;;;19.92;48.34;99711.53;4894454;29;20177;-73
2021/08/28 07:49:48;;;;;;;8.05;2.60;;;;;;;20.04;47.80;99716.31;4907321;29;20063;-71
2021/08/28 07:53:24;;;;;;;;;;;;;;;;;;;;;
2021/08/28 07:56:13;;;;;;;9.35;2.78;;;;;;;19.83;47.76;99650.56;4897286;29;20063;-72
2021/08/28 07:58:46;;;;;;;11.30;2.70;;;;;;;20.10;47.77;99675.28;4876194;29;20048;-73
2021/08/28 08:01:13;;;;;;;8.00;3.05;;;;;;;20.00;47.29;99659.91;4873049;29;20146;-74
2021/08/28 08:03:45;;;;;;;12.27;2.80;;;;;;;20.37;47.68;99717.47;4888791;29;20072;-74
2021/08/28 08:06:34;;;;;;;10.18;2.85;;;;;;;20.40;47.13;99709.28;4860940;29;20061;-74
2021/08/28 08:09:21;;;;;;;12.60;3.08;;;;;;;20.35;47.52;99686.47;4887921;29;20052;-73
2021/08/28 08:12:10;;;;;;;10.55;3.33;;;;;;;20.57;47.22;99713.00;4888218;29;20498;-73
2021/08/28 08:14:55;;;;;;;8.73;2.95;;;;;;;20.63;47.24;99716.38;4886968;29;20059;-73
2021/08/28 08:17:50;;;;;;;8.85;3.00;;;;;;;20.66;46.95;99707.34;4845680;29;20058;-73
2021/08/28 08:20:52;;;;;;;8.52;3.05;;;;;;;20.62;47.14;99679.44;4851366;29;20057;-72
2021/08/28 08:23:37;;;;;;;12.77;2.78;;;;;;;20.68;46.64;99694.75;4884223;29;20061;-74
2021/08/28 08:26:03;;;;;;;11.30;3.25;;;;;;;20.58;46.37;99672.97;4887389;29;20092;-74
2021/08/28 08:28:37;;;;;;;10.90;3.22;;;;;;;20.88;46.36;99695.00;4888119;29;20426;-75
2021/08/28 08:31:58;;;;;;;9.60;3.00;;;;;;;20.73;46.65;99665.91;4876706;29;20055;-77
2021/08/28 08:34:57;;;;;;;8.82;2.97;;;;;;;20.67;46.72;99650.63;4842085;29;20053;-75
2021/08/28 08:37:33;;;;;;;17.38;3.05;;;;;;;21.17;46.99;99700.66;4872296;29;20077;-76
2021/08/28 08:39:59;;;;;;;19.23;3.57;;;;;;;21.25;47.50;99694.16;4877053;29;20077;-75
2021/08/28 08:42:39;;;;;;;14.82;2.65;;;;;;;21.04;46.59;99656.19;4887770;29;20089;-80
2021/08/28 08:45:28;;;;;;;8.95;3.03;;;;;;;21.09;46.06;99646.81;4874447;29;20152;-80
2021/08/28 08:48:00;;;;;;;11.07;3.00;;;;;;;21.43;45.44;99688.34;4873332;29;20072;-80
2021/08/28 08:50:54;;;;;;;9.93;3.00;;;;;;;21.59;45.23;99702.31;4873172;29;20518;-81
2021/08/28 08:53:36;;;;;;;11.70;2.92;;;;;;;21.53;45.21;99669.19;4886093;29;20061;-80
2021/08/28 08:56:19;;;;;;;17.42;3.35;;;;;;;21.47;44.91;99637.22;4887243;29;20132;-82
2021/08/28 08:58:50;;;;;;;13.32;2.65;;;;;;;21.51;44.98;99620.63;4877032;29;20202;-79
2021/08/28 09:01:31;;;;;;;9.15;3.00;;;;;;;21.90;44.91;99664.66;4865010;29;20200;-80
2021/08/28 09:04:26;;;;;;;15.20;3.45;;;;;;;21.99;44.36;99648.63;4886416;29;20056;-81
2021/08/28 09:07:24;;;;;;;10.65;3.20;;;;;;;22.02;44.31;99642.34;4885015;29;20071;-73
2021/08/28 09:09:50;;;;;;;14.95;4.00;;;;;;;22.12;44.38;99635.44;4890399;29;20148;-74
2021/08/28 09:12:17;;;;;;;13.50;3.23;;;;;;;22.38;45.04;99659.19;4876505;29;21905;-70
2021/08/28 09:14:43;;;;;;;9.00;3.30;;;;;;;22.54;46.15;99673.13;4887589;29;20674;-71
2021/08/28 09:17:22;;;;;;;13.20;3.53;;;;;;;22.69;47.16;99657.59;4888182;29;20075;-71
2021/08/28 09:19:50;;;;;;;10.07;3.13;;;;;;;22.79;47.00;99648.69;4888419;29;20052;-70
2021/08/28 09:22:25;;;;;;;9.90;3.20;;;;;;;22.84;45.81;99649.56;4889026;29;20063;-71
2021/08/28 09:24:54;;;;;;;12.55;4.38;;;;;;;22.84;44.54;99647.59;4888389;29;20079;-72
2021/08/28 09:27:37;;;;;;;15.20;4.30;;;;;;;22.93;44.71;99641.81;4886559;29;20067;-73
2021/08/28 09:30:16;;;;;;;11.90;3.72;;;;;;;23.04;44.59;99644.88;4880293;29;20192;-74
2021/08/28 09:32:47;;;;;;;19.38;5.30;;;;;;;23.11;44.61;99639.44;4888367;29;20153;-72
2021/08/28 09:35:14;;;;;;;22.85;4.90;;;;;;;23.14;43.74;99647.06;4885404;29;20068;-72
2021/08/28 09:37:42;;;;;;;11.73;4.22;;;;;;;23.08;42.94;99638.19;4887896;29;20169;-73
2021/08/28 09:40:11;;;;;;;11.13;4.22;;;;;;;23.15;42.54;99623.59;4872988;29;20064;-71
2021/08/28 09:42:39;;;;;;;11.75;3.35;;;;;;;23.21;43.41;99638.88;4887472;29;20539;-73
2021/08/28 09:45:10;;;;;;;26.73;4.30;;;;;;;23.35;43.09;99643.97;4885784;29;20425;-73
2021/08/28 09:47:42;;;;;;;10.68;3.47;;;;;;;23.42;43.35;99636.94;4877521;29;20060;-72
2021/08/28 09:50:11;;;;;;;12.35;3.30;;;;;;;23.53;43.67;99640.75;4889567;29;20065;-71
2021/08/28 09:52:43;;;;;;;9.40;3.00;;;;;;;23.64;42.65;99652.13;4872498;29;20144;-72
2021/08/28 09:55:10;;;;;;;12.70;3.50;;;;;;;23.70;42.01;99663.81;4871629;29;20064;-74
2021/08/28 09:57:38;;;;;;;13.32;3.28;;;;;;;23.70;42.21;99652.63;4874847;29;20552;-73
2021/08/28 10:00:21;;;;;;;16.48;3.05;;;;;;;23.64;41.27;99644.56;4870693;29;20055;-78
2021/08/28 10:03:00;;;;;;;10.50;3.28;;;;;;;23.64;41.87;99627.84;4887120;29;20425;-71
2021/08/28 10:05:31;;;;;;;18.17;3.63;;;;;;;23.85;41.36;99642.56;4878659;29;20052;-73
2021/08/28 10:07:58;;;;;;;11.13;3.22;;;;;;;23.94;41.18;99634.75;4889188;29;20101;-72
2021/08/28 10:10:28;;;;;;;14.35;3.88;;;;;;;24.01;41.44;99631.28;4885479;29;20513;-72
2021/08/28 10:12:55;;;;;;;16.95;4.03;;;;;;;24.17;41.17;99642.41;4885586;29;20525;-71
2021/08/28 10:15:21;;;;;;;9.93;3.70;;;;;;;24.18;40.55;99647.59;4885569;29;20056;-73
2021/08/28 10:17:48;;;;;;;12.75;3.60;;;;;;;24.20;40.64;99631.31;4887580;29;20541;-73
2021/08/28 10:20:15;;;;;;;;;;;;;;;24.41;40.91;99646.00;4889481;29;20048;-74
2021/08/28 10:22:43;;;;;;;9.82;3.20;;;;;;;24.52;41.44;99641.41;4887995;29;20045;-72
2021/08/28 10:25:13;;;;;;;19.02;3.80;;;;;;;24.51;40.23;99650.97;4884116;29;20084;-69
2021/08/28 10:27:40;;;;;;;8.75;3.45;;;;;;;24.54;40.41;99666.19;4887154;29;20056;-71
2021/08/28 10:30:08;;;;;;;11.90;3.45;;;;;;;24.52;39.72;99655.38;4870822;29;20063;-72
2021/08/28 10:32:34;;;;;;;11.75;3.03;;;;;;;24.49;39.65;99645.72;4878188;29;20052;-73
2021/08/28 10:35:01;;;;;;;10.50;3.53;;;;;;;24.55;40.15;99642.66;4885095;29;20060;-71
2021/08/28 10:37:31;;;;;;;11.40;4.00;;;;;;;24.72;40.32;99653.31;4884556;29;20061;-73
2021/08/28 10:40:05;;;;;;;14.82;3.55;;;;;;;24.69;39.64;99645.69;4889461;29;20155;-78
2021/08/28 10:42:33;;;;;;;11.40;3.47;;;;;;;24.76;40.25;99647.81;4888050;29;20509;-77
2021/08/28 10:45:00;;;;;;;13.90;3.38;;;;;;;24.90;40.31;99645.22;4877739;29;20095;-78
2021/08/28 10:47:34;;;;;;;10.40;3.65;;;;;;;25.01;40.37;99645.38;4886098;29;20191;-78
2021/08/28 10:50:11;;;;;;;13.02;4.00;;;;;;;25.03;39.65;99634.63;4885188;29;20061;-78
2021/08/28 10:52:39;;;;;;;15.95;3.90;;;;;;;25.05;39.41;99643.44;4885991;29;20049;-78
2021/08/28 10:55:11;;;;;;;11.48;3.45;;;;;;;25.10;39.09;99625.53;4884979;29;20065;-77
2021/08/28 10:57:43;;;;;;;10.65;3.70;;;;;;;25.18;38.77;99627.22;4883854;29;20060;-75
2021/08/28 11:00:16;;;;;;;11.48;3.60;;;;;;;25.22;38.88;99607.69;4886051;29;20075;-80
2021/08/28 11:02:58;;;;;;;10.68;4.25;;;;;;;25.28;38.65;99610.97;4889860;29;20056;-76
2021/08/28 11:05:35;;;;;;;11.57;3.70;;;;;;;25.30;38.79;99608.59;4879270;29;20057;-83
2021/08/28 11:08:17;;;;;;;10.82;3.80;;;;;;;25.43;39.17;99611.94;4871444;29;20053;-78
2021/08/28 11:11:19;;;;;;;16.20;4.05;;;;;;;25.66;38.67;99625.06;4875720;29;20382;-75
2021/08/28 11:14:04;;;;;;;13.40;4.47;;;;;;;25.65;38.45;99620.66;4886773;29;20067;-78
2021/08/28 11:16:50;;;;;;;15.23;4.57;;;;;;;25.64;37.87;99605.84;4888023;29;20057;-76
2021/08/28 11:19:36;;;;;;;12.15;4.07;;;;;;;25.75;38.01;99608.75;4886619;29;20152;-77
2021/08/28 11:22:06;;;;;;;17.23;3.92;;;;;;;25.71;37.12;99613.50;4886781;29;20056;-76
2021/08/28 11:24:35;;;;;;;18.10;4.40;;;;;;;25.35;36.56;99546.72;4877513;29;20060;-76
2021/08/28 11:27:05;;;;;;;10.30;3.65;;;;;;;25.61;36.77;99578.63;4859979;29;20091;-76
2021/08/28 11:29:55;;;;;;;11.95;3.70;;;;;;;25.91;36.05;99602.94;4869305;29;20101;-76
2021/08/28 11:32:22;;;;;;;12.95;4.18;;;;;;;25.91;36.17;99589.75;4854314;29;20053;-75
2021/08/28 11:34:53;;;;;;;13.45;4.00;;;;;;;26.18;36.56;99612.00;4885664;29;20070;-74
2021/08/28 11:37:42;;;;;;;17.02;4.30;;;;;;;26.29;37.42;99583.28;4870785;29;20060;-77
2021/08/28 11:40:31;;;;;;;21.05;4.30;;;;;;;26.43;36.29;99583.41;4876864;29;20056;-78
2021/08/28 11:43:30;;;;;;;13.73;3.80;;;;;;;26.61;35.49;99569.50;4887436;29;20536;-73
2021/08/28 11:46:10;;;;;;;12.00;3.70;;;;;;;26.86;34.56;99568.91;4870102;29;20067;-75
2021/08/28 11:48:46;;;;;;;19.40;3.50;;;;;;;27.04;34.46;99548.56;4871710;29;20065;-77
2021/08/28 11:51:26;;;;;;;18.27;3.97;;;;;;;27.76;34.61;99601.34;4872453;29;20083;-77
2021/08/28 11:53:58;;;;;;;18.25;4.00;;;;;;;28.15;34.44;99609.03;4870962;29;20449;-77
2021/08/28 11:56:39;;;;;;;21.42;3.97;;;;;;;28.17;33.70;99550.47;4872196;29;20060;-76
2021/08/28 11:59:13;;;;;;;20.13;4.05;;;;;;;28.52;32.55;99569.72;4885187;29;20049;-77
2021/08/28 12:01:42;;;;;;;23.77;4.85;;;;;;;28.34;32.67;99548.06;4860443;29;20053;-77